sensor_id;sensor_type;location;lat;lon;timestamp;temperature;humidity
7077;DHT22;3579;48.956;9.154;2023-07-20T00:01:48;28.30;44.40
7077;DHT22;3579;48.956;9.154;2023-07-20T00:04:14;28.30;44.40
7077;DHT22;3579;48.956;9.154;2023-07-20T00:06:40;28.30;44.50
7077;DHT22;3579;48.956;9.154;2023-07-20T00:09:07;28.30;44.40
7077;DHT22;3579;48.956;9.154;2023-07-20T00:11:36;28.30;45.00
7077;DHT22;3579;48.956;9.154;2023-07-20T00:14:06;28.20;44.40
7077;DHT22;3579;48.956;9.154;2023-07-20T00:16:32;28.20;44.50
7077;DHT22;3579;48.956;9.154;2023-07-20T00:18:58;28.20;44.50
7077;DHT22;3579;48.956;9.154;2023-07-20T00:21:24;28.20;44.50
7077;DHT22;3579;48.956;9.154;2023-07-20T00:23:51;28.20;44.50
7077;DHT22;3579;48.956;9.154;2023-07-20T00:26:17;28.20;44.50
7077;DHT22;3579;48.956;9.154;2023-07-20T00:28:43;28.20;44.60
7077;DHT22;3579;48.956;9.154;2023-07-20T00:31:09;28.20;44.50
7077;DHT22;3579;48.956;9.154;2023-07-20T00:33:35;28.20;44.60
7077;DHT22;3579;48.956;9.154;2023-07-20T00:36:01;28.20;44.60
7077;DHT22;3579;48.956;9.154;2023-07-20T00:38:28;28.20;44.60
7077;DHT22;3579;48.956;9.154;2023-07-20T00:40:54;28.10;44.60
7077;DHT22;3579;48.956;9.154;2023-07-20T00:43:20;28.10;44.60
7077;DHT22;3579;48.956;9.154;2023-07-20T00:45:46;28.10;44.60
7077;DHT22;3579;48.956;9.154;2023-07-20T00:48:13;28.10;44.60
7077;DHT22;3579;48.956;9.154;2023-07-20T00:50:40;28.10;44.60
7077;DHT22;3579;48.956;9.154;2023-07-20T00:53:06;28.10;44.60
7077;DHT22;3579;48.956;9.154;2023-07-20T00:55:32;28.10;44.70
7077;DHT22;3579;48.956;9.154;2023-07-20T00:57:59;28.10;44.70
7077;DHT22;3579;48.956;9.154;2023-07-20T01:00:26;28.10;44.70
7077;DHT22;3579;48.956;9.154;2023-07-20T01:02:52;28.10;44.70
7077;DHT22;3579;48.956;9.154;2023-07-20T01:05:18;28.10;44.80
7077;DHT22;3579;48.956;9.154;2023-07-20T01:08:04;28.00;44.70
7077;DHT22;3579;48.956;9.154;2023-07-20T01:11:04;28.10;44.80
7077;DHT22;3579;48.956;9.154;2023-07-20T01:13:32;28.00;44.80
7077;DHT22;3579;48.956;9.154;2023-07-20T01:16:02;28.00;44.80
7077;DHT22;3579;48.956;9.154;2023-07-20T01:18:28;28.00;44.80
7077;DHT22;3579;48.956;9.154;2023-07-20T01:20:59;28.00;44.80
7077;DHT22;3579;48.956;9.154;2023-07-20T01:23:38;28.00;44.80
7077;DHT22;3579;48.956;9.154;2023-07-20T01:26:23;28.00;44.90
7077;DHT22;3579;48.956;9.154;2023-07-20T01:31:30;28.00;44.90
7077;DHT22;3579;48.956;9.154;2023-07-20T01:34:00;28.00;45.50
7077;DHT22;3579;48.956;9.154;2023-07-20T01:36:29;28.00;44.90
7077;DHT22;3579;48.956;9.154;2023-07-20T01:38:56;27.90;44.90
7077;DHT22;3579;48.956;9.154;2023-07-20T01:41:23;28.00;44.90
7077;DHT22;3579;48.956;9.154;2023-07-20T01:43:49;28.00;45.00
7077;DHT22;3579;48.956;9.154;2023-07-20T01:46:15;27.90;44.90
7077;DHT22;3579;48.956;9.154;2023-07-20T01:48:41;27.90;44.90
7077;DHT22;3579;48.956;9.154;2023-07-20T01:51:07;27.90;44.90
7077;DHT22;3579;48.956;9.154;2023-07-20T01:53:33;27.90;44.90
7077;DHT22;3579;48.956;9.154;2023-07-20T01:55:59;27.90;45.00
7077;DHT22;3579;48.956;9.154;2023-07-20T01:58:26;27.90;45.00
7077;DHT22;3579;48.956;9.154;2023-07-20T02:00:52;27.80;45.00
7077;DHT22;3579;48.956;9.154;2023-07-20T02:03:18;27.80;45.00
7077;DHT22;3579;48.956;9.154;2023-07-20T02:05:44;27.80;45.00
7077;DHT22;3579;48.956;9.154;2023-07-20T02:08:10;27.80;45.00
7077;DHT22;3579;48.956;9.154;2023-07-20T02:10:36;27.80;45.00
7077;DHT22;3579;48.956;9.154;2023-07-20T02:13:02;27.80;45.10
7077;DHT22;3579;48.956;9.154;2023-07-20T02:15:28;27.80;45.10
7077;DHT22;3579;48.956;9.154;2023-07-20T02:17:54;27.80;45.10
7077;DHT22;3579;48.956;9.154;2023-07-20T02:20:20;27.80;45.10
7077;DHT22;3579;48.956;9.154;2023-07-20T02:22:47;27.80;45.10
7077;DHT22;3579;48.956;9.154;2023-07-20T02:25:18;27.80;45.10
7077;DHT22;3579;48.956;9.154;2023-07-20T02:27:44;27.80;45.20
7077;DHT22;3579;48.956;9.154;2023-07-20T02:30:10;27.70;45.20
7077;DHT22;3579;48.956;9.154;2023-07-20T02:32:36;27.80;45.20
7077;DHT22;3579;48.956;9.154;2023-07-20T02:35:03;27.70;45.20
7077;DHT22;3579;48.956;9.154;2023-07-20T02:37:29;27.70;45.20
7077;DHT22;3579;48.956;9.154;2023-07-20T02:39:56;27.70;45.20
7077;DHT22;3579;48.956;9.154;2023-07-20T02:42:23;27.70;45.20
7077;DHT22;3579;48.956;9.154;2023-07-20T02:44:51;27.70;45.30
7077;DHT22;3579;48.956;9.154;2023-07-20T02:47:18;27.70;45.30
7077;DHT22;3579;48.956;9.154;2023-07-20T02:49:44;27.70;45.30
7077;DHT22;3579;48.956;9.154;2023-07-20T02:52:10;27.60;45.30
7077;DHT22;3579;48.956;9.154;2023-07-20T02:54:36;27.70;45.30
7077;DHT22;3579;48.956;9.154;2023-07-20T02:57:02;27.60;45.30
7077;DHT22;3579;48.956;9.154;2023-07-20T02:59:28;27.60;45.30
7077;DHT22;3579;48.956;9.154;2023-07-20T03:01:55;27.60;45.30
7077;DHT22;3579;48.956;9.154;2023-07-20T03:04:21;27.60;45.30
7077;DHT22;3579;48.956;9.154;2023-07-20T03:06:47;27.60;45.30
7077;DHT22;3579;48.956;9.154;2023-07-20T03:09:13;27.60;45.30
7077;DHT22;3579;48.956;9.154;2023-07-20T03:11:39;27.60;45.40
7077;DHT22;3579;48.956;9.154;2023-07-20T03:14:05;27.60;45.40
7077;DHT22;3579;48.956;9.154;2023-07-20T03:16:31;27.60;45.40
7077;DHT22;3579;48.956;9.154;2023-07-20T03:18:59;27.50;45.40
7077;DHT22;3579;48.956;9.154;2023-07-20T03:21:26;27.60;45.40
7077;DHT22;3579;48.956;9.154;2023-07-20T03:23:52;27.60;45.50
7077;DHT22;3579;48.956;9.154;2023-07-20T03:26:18;27.50;45.40
7077;DHT22;3579;48.956;9.154;2023-07-20T03:28:44;27.50;45.40
7077;DHT22;3579;48.956;9.154;2023-07-20T03:31:11;27.50;45.50
7077;DHT22;3579;48.956;9.154;2023-07-20T03:33:37;27.50;45.50
7077;DHT22;3579;48.956;9.154;2023-07-20T03:36:03;27.50;45.50
7077;DHT22;3579;48.956;9.154;2023-07-20T03:38:29;27.50;45.50
7077;DHT22;3579;48.956;9.154;2023-07-20T03:40:57;27.50;45.50
7077;DHT22;3579;48.956;9.154;2023-07-20T03:43:24;27.50;45.50
7077;DHT22;3579;48.956;9.154;2023-07-20T03:45:51;27.50;45.50
7077;DHT22;3579;48.956;9.154;2023-07-20T03:48:19;27.50;45.60
7077;DHT22;3579;48.956;9.154;2023-07-20T03:50:47;27.40;45.50
7077;DHT22;3579;48.956;9.154;2023-07-20T03:53:14;27.40;45.50
7077;DHT22;3579;48.956;9.154;2023-07-20T03:55:42;27.40;45.50
7077;DHT22;3579;48.956;9.154;2023-07-20T03:58:10;27.50;45.60
7077;DHT22;3579;48.956;9.154;2023-07-20T04:00:36;27.40;45.50
7077;DHT22;3579;48.956;9.154;2023-07-20T04:03:02;27.40;45.50
7077;DHT22;3579;48.956;9.154;2023-07-20T04:05:28;27.50;45.60
7077;DHT22;3579;48.956;9.154;2023-07-20T04:07:55;27.50;45.60
7077;DHT22;3579;48.956;9.154;2023-07-20T04:10:21;27.50;45.60
7077;DHT22;3579;48.956;9.154;2023-07-20T04:12:47;27.40;45.50
7077;DHT22;3579;48.956;9.154;2023-07-20T04:15:14;27.40;45.50
7077;DHT22;3579;48.956;9.154;2023-07-20T04:17:40;27.40;45.50
7077;DHT22;3579;48.956;9.154;2023-07-20T04:20:08;27.50;45.50
7077;DHT22;3579;48.956;9.154;2023-07-20T04:22:35;27.50;45.50
7077;DHT22;3579;48.956;9.154;2023-07-20T04:25:01;27.50;45.50
7077;DHT22;3579;48.956;9.154;2023-07-20T04:27:27;27.50;45.40
7077;DHT22;3579;48.956;9.154;2023-07-20T04:29:53;27.50;45.30
7077;DHT22;3579;48.956;9.154;2023-07-20T04:32:19;27.50;45.10
7077;DHT22;3579;48.956;9.154;2023-07-20T04:34:45;27.50;44.70
7077;DHT22;3579;48.956;9.154;2023-07-20T04:37:11;27.50;44.50
7077;DHT22;3579;48.956;9.154;2023-07-20T04:39:37;27.50;44.20
7077;DHT22;3579;48.956;9.154;2023-07-20T04:42:04;27.60;44.00
7077;DHT22;3579;48.956;9.154;2023-07-20T04:44:30;27.60;43.80
7077;DHT22;3579;48.956;9.154;2023-07-20T04:46:56;27.60;43.70
7077;DHT22;3579;48.956;9.154;2023-07-20T04:49:22;27.60;43.50
7077;DHT22;3579;48.956;9.154;2023-07-20T04:51:48;27.60;43.40
7077;DHT22;3579;48.956;9.154;2023-07-20T04:54:14;27.60;43.30
7077;DHT22;3579;48.956;9.154;2023-07-20T04:56:40;27.60;43.10
7077;DHT22;3579;48.956;9.154;2023-07-20T04:59:07;27.60;43.00
7077;DHT22;3579;48.956;9.154;2023-07-20T05:01:33;27.60;42.90
7077;DHT22;3579;48.956;9.154;2023-07-20T05:03:59;27.60;42.70
7077;DHT22;3579;48.956;9.154;2023-07-20T05:06:25;27.60;42.60
7077;DHT22;3579;48.956;9.154;2023-07-20T05:08:51;27.60;42.70
7077;DHT22;3579;48.956;9.154;2023-07-20T05:11:17;27.60;42.50
7077;DHT22;3579;48.956;9.154;2023-07-20T05:13:43;27.60;42.40
7077;DHT22;3579;48.956;9.154;2023-07-20T05:16:09;27.50;42.20
7077;DHT22;3579;48.956;9.154;2023-07-20T05:18:35;27.50;42.20
7077;DHT22;3579;48.956;9.154;2023-07-20T05:21:02;27.50;42.10
7077;DHT22;3579;48.956;9.154;2023-07-20T05:23:28;27.50;42.10
7077;DHT22;3579;48.956;9.154;2023-07-20T05:25:55;27.50;42.00
7077;DHT22;3579;48.956;9.154;2023-07-20T05:28:25;27.50;42.00
7077;DHT22;3579;48.956;9.154;2023-07-20T05:30:55;27.50;42.10
7077;DHT22;3579;48.956;9.154;2023-07-20T05:33:21;27.50;42.10
7077;DHT22;3579;48.956;9.154;2023-07-20T05:35:48;27.40;42.00
7077;DHT22;3579;48.956;9.154;2023-07-20T05:38:14;27.40;42.00
7077;DHT22;3579;48.956;9.154;2023-07-20T05:40:41;27.50;42.10
7077;DHT22;3579;48.956;9.154;2023-07-20T05:43:10;27.40;42.10
7077;DHT22;3579;48.956;9.154;2023-07-20T05:45:36;27.40;42.10
7077;DHT22;3579;48.956;9.154;2023-07-20T05:48:02;27.40;42.30
7077;DHT22;3579;48.956;9.154;2023-07-20T05:50:29;27.30;42.40
7077;DHT22;3579;48.956;9.154;2023-07-20T05:52:55;27.30;42.40
7077;DHT22;3579;48.956;9.154;2023-07-20T05:55:21;27.30;42.40
7077;DHT22;3579;48.956;9.154;2023-07-20T05:57:47;27.20;42.40
7077;DHT22;3579;48.956;9.154;2023-07-20T06:00:14;27.20;42.40
7077;DHT22;3579;48.956;9.154;2023-07-20T06:02:41;27.20;42.40
7077;DHT22;3579;48.956;9.154;2023-07-20T06:05:08;27.20;42.50
7077;DHT22;3579;48.956;9.154;2023-07-20T06:07:37;27.20;42.60
7077;DHT22;3579;48.956;9.154;2023-07-20T06:10:05;27.20;42.70
7077;DHT22;3579;48.956;9.154;2023-07-20T06:12:31;27.30;42.80
7077;DHT22;3579;48.956;9.154;2023-07-20T06:15:02;27.30;42.80
7077;DHT22;3579;48.956;9.154;2023-07-20T06:17:28;27.30;42.70
7077;DHT22;3579;48.956;9.154;2023-07-20T06:19:54;27.30;42.80
7077;DHT22;3579;48.956;9.154;2023-07-20T06:22:20;27.30;42.80
7077;DHT22;3579;48.956;9.154;2023-07-20T06:24:46;27.30;42.90
7077;DHT22;3579;48.956;9.154;2023-07-20T06:27:12;27.30;43.00
7077;DHT22;3579;48.956;9.154;2023-07-20T06:29:38;27.30;43.20
7077;DHT22;3579;48.956;9.154;2023-07-20T06:32:06;27.30;43.50
7077;DHT22;3579;48.956;9.154;2023-07-20T06:34:32;27.20;43.40
7077;DHT22;3579;48.956;9.154;2023-07-20T06:37:03;27.30;43.50
7077;DHT22;3579;48.956;9.154;2023-07-20T06:39:30;27.20;43.40
7077;DHT22;3579;48.956;9.154;2023-07-20T06:41:56;27.20;43.20
7077;DHT22;3579;48.956;9.154;2023-07-20T06:44:22;27.20;43.20
7077;DHT22;3579;48.956;9.154;2023-07-20T06:46:48;27.20;43.20
7077;DHT22;3579;48.956;9.154;2023-07-20T06:49:25;27.10;43.10
7077;DHT22;3579;48.956;9.154;2023-07-20T06:51:52;27.10;43.00
7077;DHT22;3579;48.956;9.154;2023-07-20T06:54:18;27.10;43.10
7077;DHT22;3579;48.956;9.154;2023-07-20T06:56:44;27.10;43.10
7077;DHT22;3579;48.956;9.154;2023-07-20T06:59:10;27.00;43.20
7077;DHT22;3579;48.956;9.154;2023-07-20T07:01:36;27.00;43.10
7077;DHT22;3579;48.956;9.154;2023-07-20T07:04:02;27.00;43.20
7077;DHT22;3579;48.956;9.154;2023-07-20T07:06:29;26.90;43.10
7077;DHT22;3579;48.956;9.154;2023-07-20T07:08:55;26.80;43.20
7077;DHT22;3579;48.956;9.154;2023-07-20T07:11:21;26.70;43.40
7077;DHT22;3579;48.956;9.154;2023-07-20T07:13:48;26.60;43.50
7077;DHT22;3579;48.956;9.154;2023-07-20T07:16:17;26.60;43.70
7077;DHT22;3579;48.956;9.154;2023-07-20T07:18:45;26.50;43.80
7077;DHT22;3579;48.956;9.154;2023-07-20T07:21:12;26.60;43.80
7077;DHT22;3579;48.956;9.154;2023-07-20T07:23:39;26.50;44.00
7077;DHT22;3579;48.956;9.154;2023-07-20T07:26:05;26.50;44.20
7077;DHT22;3579;48.956;9.154;2023-07-20T07:28:31;26.50;44.30
7077;DHT22;3579;48.956;9.154;2023-07-20T07:30:58;26.40;44.30
7077;DHT22;3579;48.956;9.154;2023-07-20T07:33:24;26.40;44.40
7077;DHT22;3579;48.956;9.154;2023-07-20T07:35:53;26.40;44.50
7077;DHT22;3579;48.956;9.154;2023-07-20T07:38:19;26.40;44.50
7077;DHT22;3579;48.956;9.154;2023-07-20T07:40:46;26.40;44.50
7077;DHT22;3579;48.956;9.154;2023-07-20T07:43:12;26.40;44.60
7077;DHT22;3579;48.956;9.154;2023-07-20T07:45:39;26.40;44.70
7077;DHT22;3579;48.956;9.154;2023-07-20T07:48:06;26.40;44.60
7077;DHT22;3579;48.956;9.154;2023-07-20T07:50:33;26.30;44.70
7077;DHT22;3579;48.956;9.154;2023-07-20T07:53:00;26.40;44.80
7077;DHT22;3579;48.956;9.154;2023-07-20T07:55:26;26.40;44.80
7077;DHT22;3579;48.956;9.154;2023-07-20T07:57:52;26.30;44.70
7077;DHT22;3579;48.956;9.154;2023-07-20T08:00:19;26.40;44.70
7077;DHT22;3579;48.956;9.154;2023-07-20T08:02:46;26.40;44.50
7077;DHT22;3579;48.956;9.154;2023-07-20T08:05:14;26.50;44.50
7077;DHT22;3579;48.956;9.154;2023-07-20T08:07:40;26.50;44.40
7077;DHT22;3579;48.956;9.154;2023-07-20T08:10:07;26.50;44.30
7077;DHT22;3579;48.956;9.154;2023-07-20T08:12:33;26.50;43.80
7077;DHT22;3579;48.956;9.154;2023-07-20T08:14:59;26.60;43.70
7077;DHT22;3579;48.956;9.154;2023-07-20T08:17:26;26.70;43.80
7077;DHT22;3579;48.956;9.154;2023-07-20T08:19:52;26.80;43.60
7077;DHT22;3579;48.956;9.154;2023-07-20T08:22:20;26.80;43.70
7077;DHT22;3579;48.956;9.154;2023-07-20T08:24:47;26.90;43.50
7077;DHT22;3579;48.956;9.154;2023-07-20T08:27:14;26.90;43.50
7077;DHT22;3579;48.956;9.154;2023-07-20T08:29:40;27.00;43.60
7077;DHT22;3579;48.956;9.154;2023-07-20T08:32:06;27.00;43.50
7077;DHT22;3579;48.956;9.154;2023-07-20T08:34:32;27.00;43.60
7077;DHT22;3579;48.956;9.154;2023-07-20T08:36:59;27.00;43.70
7077;DHT22;3579;48.956;9.154;2023-07-20T08:39:25;27.00;43.60
7077;DHT22;3579;48.956;9.154;2023-07-20T08:41:51;27.10;43.70
7077;DHT22;3579;48.956;9.154;2023-07-20T08:44:20;27.10;43.50
7077;DHT22;3579;48.956;9.154;2023-07-20T08:46:47;27.00;43.00
7077;DHT22;3579;48.956;9.154;2023-07-20T08:49:16;27.60;43.20
7077;DHT22;3579;48.956;9.154;2023-07-20T08:51:46;26.90;42.80
7077;DHT22;3579;48.956;9.154;2023-07-20T08:54:13;27.00;42.70
7077;DHT22;3579;48.956;9.154;2023-07-20T08:56:41;26.90;42.30
7077;DHT22;3579;48.956;9.154;2023-07-20T08:59:08;26.90;42.40
7077;DHT22;3579;48.956;9.154;2023-07-20T09:01:36;27.00;42.40
7077;DHT22;3579;48.956;9.154;2023-07-20T09:04:04;27.00;42.30
7077;DHT22;3579;48.956;9.154;2023-07-20T09:06:32;27.10;42.20
7077;DHT22;3579;48.956;9.154;2023-07-20T09:09:00;27.10;42.00
7077;DHT22;3579;48.956;9.154;2023-07-20T09:11:26;27.10;42.10
7077;DHT22;3579;48.956;9.154;2023-07-20T09:14:12;27.10;41.70
7077;DHT22;3579;48.956;9.154;2023-07-20T09:16:53;27.10;40.80
7077;DHT22;3579;48.956;9.154;2023-07-20T09:19:20;27.10;40.70
7077;DHT22;3579;48.956;9.154;2023-07-20T09:21:51;27.10;40.70
7077;DHT22;3579;48.956;9.154;2023-07-20T09:24:18;27.20;40.60
7077;DHT22;3579;48.956;9.154;2023-07-20T09:26:46;27.20;41.30
7077;DHT22;3579;48.956;9.154;2023-07-20T09:29:14;27.20;40.20
7077;DHT22;3579;48.956;9.154;2023-07-20T09:32:04;27.20;40.10
7077;DHT22;3579;48.956;9.154;2023-07-20T09:34:31;27.20;40.20
7077;DHT22;3579;48.956;9.154;2023-07-20T09:37:00;27.20;40.40
7077;DHT22;3579;48.956;9.154;2023-07-20T09:39:27;27.20;40.50
7077;DHT22;3579;48.956;9.154;2023-07-20T09:41:53;27.30;40.70
7077;DHT22;3579;48.956;9.154;2023-07-20T09:44:19;27.30;40.70
7077;DHT22;3579;48.956;9.154;2023-07-20T09:46:50;27.40;40.60
7077;DHT22;3579;48.956;9.154;2023-07-20T09:49:19;27.40;40.00
7077;DHT22;3579;48.956;9.154;2023-07-20T09:51:46;27.40;39.90
7077;DHT22;3579;48.956;9.154;2023-07-20T09:54:13;27.40;40.00
7077;DHT22;3579;48.956;9.154;2023-07-20T09:56:40;27.40;40.00
7077;DHT22;3579;48.956;9.154;2023-07-20T09:59:07;27.50;40.20
7077;DHT22;3579;48.956;9.154;2023-07-20T10:01:34;27.50;40.20
7077;DHT22;3579;48.956;9.154;2023-07-20T10:04:03;27.50;40.20
7077;DHT22;3579;48.956;9.154;2023-07-20T10:06:32;27.60;40.30
7077;DHT22;3579;48.956;9.154;2023-07-20T10:09:03;27.50;40.20
7077;DHT22;3579;48.956;9.154;2023-07-20T10:11:35;27.60;39.90
7077;DHT22;3579;48.956;9.154;2023-07-20T10:14:04;27.60;40.00
7077;DHT22;3579;48.956;9.154;2023-07-20T10:16:42;27.60;39.80
7077;DHT22;3579;48.956;9.154;2023-07-20T10:19:22;27.70;40.30
7077;DHT22;3579;48.956;9.154;2023-07-20T10:22:14;27.80;40.70
7077;DHT22;3579;48.956;9.154;2023-07-20T10:24:46;27.80;39.50
7077;DHT22;3579;48.956;9.154;2023-07-20T10:27:14;27.80;39.50
7077;DHT22;3579;48.956;9.154;2023-07-20T10:29:41;27.80;39.40
7077;DHT22;3579;48.956;9.154;2023-07-20T10:32:09;27.80;39.00
7077;DHT22;3579;48.956;9.154;2023-07-20T10:34:35;27.80;38.80
7077;DHT22;3579;48.956;9.154;2023-07-20T10:37:02;27.80;38.60
7077;DHT22;3579;48.956;9.154;2023-07-20T10:39:31;27.80;38.20
7077;DHT22;3579;48.956;9.154;2023-07-20T10:42:07;27.80;38.30
7077;DHT22;3579;48.956;9.154;2023-07-20T10:44:34;27.80;38.40
7077;DHT22;3579;48.956;9.154;2023-07-20T10:47:08;27.80;38.30
7077;DHT22;3579;48.956;9.154;2023-07-20T10:49:35;27.80;38.30
7077;DHT22;3579;48.956;9.154;2023-07-20T10:52:05;27.90;38.50
7077;DHT22;3579;48.956;9.154;2023-07-20T10:54:33;27.90;38.60
7077;DHT22;3579;48.956;9.154;2023-07-20T10:57:29;27.90;38.60
7077;DHT22;3579;48.956;9.154;2023-07-20T11:00:14;28.00;38.50
7077;DHT22;3579;48.956;9.154;2023-07-20T11:02:45;27.90;38.00
7077;DHT22;3579;48.956;9.154;2023-07-20T11:05:39;27.80;37.90
7077;DHT22;3579;48.956;9.154;2023-07-20T11:08:10;27.90;38.10
7077;DHT22;3579;48.956;9.154;2023-07-20T11:10:37;27.90;38.00
7077;DHT22;3579;48.956;9.154;2023-07-20T11:16:01;28.00;37.40
7077;DHT22;3579;48.956;9.154;2023-07-20T11:18:27;28.00;37.20
7077;DHT22;3579;48.956;9.154;2023-07-20T11:20:54;28.00;37.50
7077;DHT22;3579;48.956;9.154;2023-07-20T11:23:20;28.00;37.40
7077;DHT22;3579;48.956;9.154;2023-07-20T11:25:46;28.00;37.60
7077;DHT22;3579;48.956;9.154;2023-07-20T11:28:13;28.00;37.40
7077;DHT22;3579;48.956;9.154;2023-07-20T11:30:39;28.00;37.30
7077;DHT22;3579;48.956;9.154;2023-07-20T11:33:08;28.10;37.40
7077;DHT22;3579;48.956;9.154;2023-07-20T11:35:45;28.10;37.60
7077;DHT22;3579;48.956;9.154;2023-07-20T11:38:13;28.10;37.70
7077;DHT22;3579;48.956;9.154;2023-07-20T11:40:45;28.10;37.30
7077;DHT22;3579;48.956;9.154;2023-07-20T11:43:14;28.00;37.00
7077;DHT22;3579;48.956;9.154;2023-07-20T11:45:41;28.00;36.60
7077;DHT22;3579;48.956;9.154;2023-07-20T11:48:07;28.00;36.70
7077;DHT22;3579;48.956;9.154;2023-07-20T11:50:39;28.00;36.30
7077;DHT22;3579;48.956;9.154;2023-07-20T11:53:05;28.00;36.70
7077;DHT22;3579;48.956;9.154;2023-07-20T11:55:32;27.90;37.10
7077;DHT22;3579;48.956;9.154;2023-07-20T11:58:05;27.90;36.90
7077;DHT22;3579;48.956;9.154;2023-07-20T12:00:33;27.90;37.10
7077;DHT22;3579;48.956;9.154;2023-07-20T12:03:00;27.90;37.10
7077;DHT22;3579;48.956;9.154;2023-07-20T12:05:27;27.90;37.10
7077;DHT22;3579;48.956;9.154;2023-07-20T12:07:54;27.90;37.30
7077;DHT22;3579;48.956;9.154;2023-07-20T12:10:25;27.80;37.20
7077;DHT22;3579;48.956;9.154;2023-07-20T12:12:52;27.90;37.30
7077;DHT22;3579;48.956;9.154;2023-07-20T12:15:22;27.90;37.20
7077;DHT22;3579;48.956;9.154;2023-07-20T12:17:57;27.80;36.70
7077;DHT22;3579;48.956;9.154;2023-07-20T12:20:36;27.90;36.70
7077;DHT22;3579;48.956;9.154;2023-07-20T12:23:05;27.90;36.70
7077;DHT22;3579;48.956;9.154;2023-07-20T12:28:06;28.00;36.60
7077;DHT22;3579;48.956;9.154;2023-07-20T12:30:32;28.00;36.40
7077;DHT22;3579;48.956;9.154;2023-07-20T12:32:59;28.00;36.00
7077;DHT22;3579;48.956;9.154;2023-07-20T12:35:25;28.10;35.80
7077;DHT22;3579;48.956;9.154;2023-07-20T12:37:51;28.10;35.40
7077;DHT22;3579;48.956;9.154;2023-07-20T12:40:19;26.50;34.70
7077;DHT22;3579;48.956;9.154;2023-07-20T12:42:45;28.20;35.40
7077;DHT22;3579;48.956;9.154;2023-07-20T12:45:13;28.10;35.10
7077;DHT22;3579;48.956;9.154;2023-07-20T12:47:40;28.10;35.10
7077;DHT22;3579;48.956;9.154;2023-07-20T12:50:07;28.10;35.00
7077;DHT22;3579;48.956;9.154;2023-07-20T12:53:07;28.10;35.30
7077;DHT22;3579;48.956;9.154;2023-07-20T12:55:34;28.20;36.00
7077;DHT22;3579;48.956;9.154;2023-07-20T12:58:00;28.20;36.10
7077;DHT22;3579;48.956;9.154;2023-07-20T13:00:26;28.20;35.70
7077;DHT22;3579;48.956;9.154;2023-07-20T13:02:53;28.20;35.10
7077;DHT22;3579;48.956;9.154;2023-07-20T13:05:19;28.10;35.10
7077;DHT22;3579;48.956;9.154;2023-07-20T13:07:45;28.10;35.00
7077;DHT22;3579;48.956;9.154;2023-07-20T13:10:12;28.10;34.90
7077;DHT22;3579;48.956;9.154;2023-07-20T13:12:38;28.10;34.50
7077;DHT22;3579;48.956;9.154;2023-07-20T13:15:10;28.20;35.10
7077;DHT22;3579;48.956;9.154;2023-07-20T13:17:38;28.20;34.90
7077;DHT22;3579;48.956;9.154;2023-07-20T13:20:06;28.10;34.70
7077;DHT22;3579;48.956;9.154;2023-07-20T13:22:33;28.10;34.80
7077;DHT22;3579;48.956;9.154;2023-07-20T13:25:01;28.10;34.70
7077;DHT22;3579;48.956;9.154;2023-07-20T13:27:27;28.10;34.60
7077;DHT22;3579;48.956;9.154;2023-07-20T13:29:53;28.10;34.90
7077;DHT22;3579;48.956;9.154;2023-07-20T13:32:19;28.10;35.00
7077;DHT22;3579;48.956;9.154;2023-07-20T13:34:46;28.10;35.10
7077;DHT22;3579;48.956;9.154;2023-07-20T13:37:12;28.10;35.30
7077;DHT22;3579;48.956;9.154;2023-07-20T13:39:38;28.10;35.40
7077;DHT22;3579;48.956;9.154;2023-07-20T13:42:05;28.10;35.70
7077;DHT22;3579;48.956;9.154;2023-07-20T13:44:32;28.10;35.20
7077;DHT22;3579;48.956;9.154;2023-07-20T13:46:58;28.10;35.00
7077;DHT22;3579;48.956;9.154;2023-07-20T13:49:24;28.10;35.00
7077;DHT22;3579;48.956;9.154;2023-07-20T13:51:50;28.20;34.80
7077;DHT22;3579;48.956;9.154;2023-07-20T13:54:16;28.20;35.30
7077;DHT22;3579;48.956;9.154;2023-07-20T13:56:43;28.10;35.00
7077;DHT22;3579;48.956;9.154;2023-07-20T13:59:09;28.20;34.10
7077;DHT22;3579;48.956;9.154;2023-07-20T14:01:35;28.10;34.30
7077;DHT22;3579;48.956;9.154;2023-07-20T14:04:02;28.10;34.80
7077;DHT22;3579;48.956;9.154;2023-07-20T14:06:30;28.20;34.00
7077;DHT22;3579;48.956;9.154;2023-07-20T14:08:57;28.10;34.00
7077;DHT22;3579;48.956;9.154;2023-07-20T14:11:23;28.20;33.70
7077;DHT22;3579;48.956;9.154;2023-07-20T14:13:50;28.20;33.80
7077;DHT22;3579;48.956;9.154;2023-07-20T14:16:18;28.10;33.80
7077;DHT22;3579;48.956;9.154;2023-07-20T14:18:45;28.10;34.30
7077;DHT22;3579;48.956;9.154;2023-07-20T14:21:13;28.20;34.10
7077;DHT22;3579;48.956;9.154;2023-07-20T14:23:39;28.20;33.70
7077;DHT22;3579;48.956;9.154;2023-07-20T14:26:05;28.20;33.90
7077;DHT22;3579;48.956;9.154;2023-07-20T14:28:33;28.20;33.90
7077;DHT22;3579;48.956;9.154;2023-07-20T14:30:59;28.20;34.40
7077;DHT22;3579;48.956;9.154;2023-07-20T14:33:25;28.20;34.20
7077;DHT22;3579;48.956;9.154;2023-07-20T14:35:51;28.20;33.60
7077;DHT22;3579;48.956;9.154;2023-07-20T14:38:17;28.20;33.80
7077;DHT22;3579;48.956;9.154;2023-07-20T14:40:43;28.20;33.90
7077;DHT22;3579;48.956;9.154;2023-07-20T14:43:10;28.20;34.20
7077;DHT22;3579;48.956;9.154;2023-07-20T14:45:36;28.20;33.50
7077;DHT22;3579;48.956;9.154;2023-07-20T14:48:04;28.20;33.90
7077;DHT22;3579;48.956;9.154;2023-07-20T14:50:30;28.20;34.40
7077;DHT22;3579;48.956;9.154;2023-07-20T14:52:56;28.20;34.60
7077;DHT22;3579;48.956;9.154;2023-07-20T14:55:22;28.20;34.80
7077;DHT22;3579;48.956;9.154;2023-07-20T14:57:48;28.20;34.90
7077;DHT22;3579;48.956;9.154;2023-07-20T15:00:15;28.20;34.90
7077;DHT22;3579;48.956;9.154;2023-07-20T15:02:41;28.30;35.10
7077;DHT22;3579;48.956;9.154;2023-07-20T15:05:08;28.30;35.10
7077;DHT22;3579;48.956;9.154;2023-07-20T15:07:35;28.30;35.10
7077;DHT22;3579;48.956;9.154;2023-07-20T15:10:02;28.30;35.00
7077;DHT22;3579;48.956;9.154;2023-07-20T15:12:30;28.20;35.20
7077;DHT22;3579;48.956;9.154;2023-07-20T15:15:11;28.20;35.40
7077;DHT22;3579;48.956;9.154;2023-07-20T15:17:39;28.20;35.50
7077;DHT22;3579;48.956;9.154;2023-07-20T15:20:07;28.20;35.60
7077;DHT22;3579;48.956;9.154;2023-07-20T15:22:34;28.20;35.70
7077;DHT22;3579;48.956;9.154;2023-07-20T15:25:08;28.20;35.80
7077;DHT22;3579;48.956;9.154;2023-07-20T15:27:34;28.20;35.90
7077;DHT22;3579;48.956;9.154;2023-07-20T15:30:01;28.20;35.90
7077;DHT22;3579;48.956;9.154;2023-07-20T15:32:27;28.20;35.90
7077;DHT22;3579;48.956;9.154;2023-07-20T15:34:53;28.30;36.00
7077;DHT22;3579;48.956;9.154;2023-07-20T15:37:19;28.30;36.00
7077;DHT22;3579;48.956;9.154;2023-07-20T15:39:49;28.30;35.20
7077;DHT22;3579;48.956;9.154;2023-07-20T15:42:15;28.30;35.40
7077;DHT22;3579;48.956;9.154;2023-07-20T15:44:41;28.30;36.10
7077;DHT22;3579;48.956;9.154;2023-07-20T15:47:07;28.30;36.40
7077;DHT22;3579;48.956;9.154;2023-07-20T15:49:33;28.30;35.50
7077;DHT22;3579;48.956;9.154;2023-07-20T15:51:59;28.30;34.90
7077;DHT22;3579;48.956;9.154;2023-07-20T15:54:25;28.30;35.60
7077;DHT22;3579;48.956;9.154;2023-07-20T15:56:52;28.30;34.00
7077;DHT22;3579;48.956;9.154;2023-07-20T15:59:19;28.30;33.30
7077;DHT22;3579;48.956;9.154;2023-07-20T16:01:45;28.30;33.90
7077;DHT22;3579;48.956;9.154;2023-07-20T16:04:13;28.30;34.60
7077;DHT22;3579;48.956;9.154;2023-07-20T16:06:40;28.30;34.90
7077;DHT22;3579;48.956;9.154;2023-07-20T16:09:06;28.30;35.00
7077;DHT22;3579;48.956;9.154;2023-07-20T16:11:34;28.30;35.20
7077;DHT22;3579;48.956;9.154;2023-07-20T16:14:01;28.30;35.30